createdAt,value
2023-05-19T00:00:09.482Z,99.90
2023-05-19T00:02:39.744Z,99.90
2023-05-19T00:05:10.395Z,99.90
2023-05-19T00:07:40.735Z,99.90
2023-05-19T00:10:10.269Z,99.90
2023-05-19T00:12:39.646Z,99.90
2023-05-19T00:15:10.590Z,99.90
2023-05-19T00:17:39.024Z,99.90
2023-05-19T00:20:08.487Z,99.90
2023-05-19T00:22:37.078Z,99.90
2023-05-19T00:25:07.806Z,99.90
2023-05-19T00:27:35.953Z,99.90
2023-05-19T00:30:04.127Z,99.90
2023-05-19T00:32:32.325Z,99.90
2023-05-19T00:35:00.992Z,99.90
2023-05-19T00:37:29.146Z,99.90
2023-05-19T00:39:58.144Z,99.90
2023-05-19T00:42:27.783Z,99.90
2023-05-19T00:44:56.102Z,99.90
2023-05-19T00:47:24.314Z,99.90
2023-05-19T00:49:52.436Z,99.90
2023-05-19T00:52:20.725Z,99.90
2023-05-19T00:54:50.089Z,99.90
2023-05-19T01:12:43.600Z,99.90
2023-05-19T01:15:12.987Z,99.90
2023-05-19T01:17:46.988Z,99.90
2023-05-19T01:20:21.979Z,99.90
2023-05-19T01:23:16.833Z,99.90
2023-05-19T01:26:03.174Z,99.90
2023-05-19T01:29:07.213Z,99.90
2023-05-19T01:31:38.699Z,99.90
2023-05-19T01:34:08.824Z,99.90
2023-05-19T01:36:38.211Z,99.90
2023-05-19T01:39:07.228Z,99.90
2023-05-19T01:41:36.022Z,99.90
2023-05-19T01:44:04.432Z,99.90
2023-05-19T01:46:32.622Z,99.90
2023-05-19T01:49:02.970Z,99.90
2023-05-19T01:51:31.488Z,99.90
2023-05-19T01:53:59.914Z,99.90
2023-05-19T01:56:38.940Z,99.90
2023-05-19T01:59:20.988Z,99.90
2023-05-19T02:01:54.318Z,99.90
2023-05-19T02:04:39.912Z,99.90
2023-05-19T02:07:14.678Z,99.90
2023-05-19T02:09:52.684Z,99.90
2023-05-19T02:12:26.932Z,99.90
2023-05-19T02:15:04.323Z,99.90
2023-05-19T02:17:36.271Z,99.90
2023-05-19T02:20:07.032Z,99.90
2023-05-19T02:22:35.166Z,99.90
2023-05-19T02:25:03.516Z,99.90
2023-05-19T02:27:31.631Z,99.90
2023-05-19T02:29:59.757Z,99.90
2023-05-19T02:32:28.005Z,99.90
2023-05-19T02:34:56.625Z,99.90
2023-05-19T02:37:28.676Z,99.90
2023-05-19T02:39:56.905Z,99.90
2023-05-19T02:42:25.090Z,99.90
2023-05-19T02:44:54.217Z,99.90
2023-05-19T02:47:22.416Z,99.90
2023-05-19T02:49:50.550Z,99.90
2023-05-19T03:05:54.361Z,99.90
2023-05-19T03:08:23.821Z,99.90
2023-05-19T03:10:51.919Z,99.90
2023-05-19T03:13:20.102Z,99.90
2023-05-19T03:15:48.943Z,99.90
2023-05-19T03:26:29.395Z,99.90
2023-05-19T03:28:57.539Z,99.90
2023-05-19T03:31:26.836Z,99.90
2023-05-19T03:33:54.979Z,99.90
2023-05-19T03:36:23.159Z,99.90
2023-05-19T03:38:51.307Z,99.90
2023-05-19T03:41:19.454Z,99.90
2023-05-19T03:43:48.957Z,99.90
2023-05-19T03:46:17.117Z,99.90
2023-05-19T03:48:45.263Z,99.90
2023-05-19T03:51:13.575Z,99.90
2023-05-19T03:53:42.515Z,99.90
2023-05-19T03:56:13.682Z,99.90
2023-05-19T03:58:43.534Z,99.90
2023-05-19T04:01:13.347Z,99.90
2023-05-19T04:11:43.010Z,99.90
2023-05-19T04:14:11.249Z,99.90
2023-05-19T04:16:41.749Z,99.90
2023-05-19T04:19:09.858Z,99.90
2023-05-19T04:21:37.996Z,99.90
2023-05-19T04:24:06.957Z,99.90
2023-05-19T04:26:36.027Z,99.90
2023-05-19T04:29:04.937Z,99.90
2023-05-19T04:31:34.497Z,99.90
2023-05-19T04:34:04.134Z,99.90
2023-05-19T04:36:34.084Z,99.90
2023-05-19T04:39:07.229Z,99.90
2023-05-19T04:41:35.547Z,99.90
2023-05-19T04:44:03.987Z,99.90
2023-05-19T04:46:32.309Z,99.90
2023-05-19T04:49:01.306Z,99.90
2023-05-19T04:51:31.408Z,99.90
2023-05-19T04:54:00.075Z,99.90
2023-05-19T04:56:28.962Z,99.90
2023-05-19T04:58:57.199Z,99.90
2023-05-19T05:01:26.255Z,99.90
2023-05-19T05:03:56.230Z,99.90
2023-05-19T05:06:24.396Z,99.90
2023-05-19T05:08:54.312Z,99.90
2023-05-19T05:11:22.891Z,99.90
2023-05-19T05:13:51.663Z,99.90
2023-05-19T05:20:32.918Z,99.90
2023-05-19T05:23:02.232Z,99.90
2023-05-19T05:25:32.651Z,99.90
2023-05-19T05:28:05.023Z,99.90
2023-05-19T05:30:34.828Z,99.90
2023-05-19T05:33:03.775Z,99.90
2023-05-19T05:35:32.319Z,99.90
2023-05-19T05:38:01.649Z,99.90
2023-05-19T05:40:31.271Z,99.90
2023-05-19T05:43:00.028Z,99.90
2023-05-19T05:45:28.270Z,99.90
2023-05-19T05:47:57.026Z,99.90
2023-05-19T05:50:25.700Z,99.90
2023-05-19T05:52:56.508Z,99.90
2023-05-19T05:55:25.524Z,99.90
2023-05-19T05:57:56.938Z,99.90
2023-05-19T06:00:27.949Z,99.90
2023-05-19T06:02:57.246Z,99.90
2023-05-19T06:05:25.941Z,99.90
2023-05-19T06:07:54.115Z,99.90
2023-05-19T06:10:22.376Z,99.90
2023-05-19T06:12:50.570Z,99.90
2023-05-19T06:15:20.099Z,99.90
2023-05-19T06:17:48.277Z,99.90
2023-05-19T06:20:16.472Z,99.90
2023-05-19T06:22:44.612Z,99.90
2023-05-19T06:25:12.712Z,99.90
2023-05-19T06:27:40.810Z,99.90
2023-05-19T06:30:10.126Z,99.90
2023-05-19T06:32:39.640Z,99.90
2023-05-19T06:35:08.234Z,99.90
2023-05-19T06:37:36.629Z,99.90
2023-05-19T06:40:05.745Z,99.90
2023-05-19T06:42:33.858Z,99.90
2023-05-19T06:45:01.991Z,99.90
2023-05-19T06:47:30.135Z,99.90
2023-05-19T06:49:59.615Z,99.90
2023-05-19T06:52:27.732Z,99.90
2023-05-19T06:54:55.948Z,99.90
2023-05-19T06:57:24.113Z,99.90
2023-05-19T06:59:52.202Z,99.90
2023-05-19T07:02:20.384Z,99.90
2023-05-19T07:04:48.545Z,99.90
2023-05-19T07:07:18.046Z,99.90
2023-05-19T07:09:46.253Z,99.90
2023-05-19T07:12:14.458Z,99.90
2023-05-19T07:14:42.634Z,99.90
2023-05-19T07:17:10.780Z,99.90
2023-05-19T07:19:38.969Z,99.90
2023-05-19T07:22:07.098Z,99.90
2023-05-19T07:24:36.675Z,99.90
2023-05-19T07:27:05.085Z,99.90
2023-05-19T07:29:33.204Z,99.30
2023-05-19T07:32:01.425Z,98.60
2023-05-19T07:34:29.580Z,98.50
2023-05-19T07:36:57.706Z,99.40
2023-05-19T07:39:29.539Z,99.40
2023-05-19T07:41:59.407Z,99.40
2023-05-19T07:44:28.146Z,97.80
2023-05-19T07:46:56.280Z,96.30
2023-05-19T07:49:24.597Z,96.10
2023-05-19T07:51:52.845Z,95.70
2023-05-19T07:54:21.365Z,95.60
2023-05-19T07:56:49.577Z,95.90
2023-05-19T08:10:42.011Z,96.20
2023-05-19T08:13:10.242Z,96.30
2023-05-19T08:15:38.571Z,97.20
2023-05-19T08:18:06.796Z,97.10
2023-05-19T08:20:35.227Z,96.90
2023-05-19T08:23:03.743Z,96.30
2023-05-19T08:25:32.168Z,95.30
2023-05-19T08:28:01.671Z,94.70
2023-05-19T08:30:29.858Z,95.60
2023-05-19T08:32:58.114Z,96.00
2023-05-19T08:35:26.479Z,96.40
2023-05-19T08:37:54.640Z,96.50
2023-05-19T08:40:23.949Z,95.50
2023-05-19T08:42:52.178Z,95.90
2023-05-19T08:45:21.684Z,95.70
2023-05-19T08:47:52.232Z,94.70
2023-05-19T08:50:27.639Z,94.00
2023-05-19T08:53:02.985Z,94.00
2023-05-19T08:55:38.236Z,93.40
2023-05-19T08:58:06.947Z,93.80
2023-05-19T09:00:37.074Z,91.90
2023-05-19T09:03:17.586Z,91.60
2023-05-19T09:05:47.112Z,91.50
2023-05-19T09:08:16.111Z,91.80
2023-05-19T09:10:44.248Z,91.40
2023-05-19T09:13:12.373Z,92.30
2023-05-19T09:15:43.578Z,91.90
2023-05-19T09:18:15.075Z,90.90
2023-05-19T09:20:44.837Z,91.10
2023-05-19T09:23:17.855Z,91.10
2023-05-19T09:25:49.668Z,91.40
2023-05-19T09:28:25.385Z,90.70
2023-05-19T09:31:02.397Z,91.00
2023-05-19T09:33:31.144Z,91.40
2023-05-19T09:35:59.445Z,91.30
2023-05-19T09:38:28.081Z,91.70
2023-05-19T09:40:58.452Z,92.10
2023-05-19T09:43:29.226Z,92.70
2023-05-19T09:46:02.302Z,91.70
2023-05-19T09:48:30.503Z,91.10
2023-05-19T09:50:59.126Z,90.30
2023-05-19T09:53:27.553Z,88.80
2023-05-19T09:55:58.695Z,89.30
2023-05-19T09:58:27.987Z,90.10
2023-05-19T10:00:57.378Z,90.10
2023-05-19T10:03:27.386Z,89.70
2023-05-19T10:05:55.852Z,88.70
2023-05-19T10:08:26.679Z,87.20
2023-05-19T10:10:55.064Z,87.30
2023-05-19T10:13:23.832Z,88.60
2023-05-19T10:15:58.610Z,88.40
2023-05-19T10:18:29.855Z,87.90
2023-05-19T10:20:59.510Z,86.90
2023-05-19T10:23:27.912Z,86.20
2023-05-19T10:26:00.971Z,88.30
2023-05-19T10:28:38.075Z,87.10
2023-05-19T10:31:10.860Z,87.50
2023-05-19T10:33:57.975Z,87.50
2023-05-19T10:36:45.745Z,89.30
2023-05-19T10:39:19.010Z,90.10
2023-05-19T10:41:54.952Z,90.20
2023-05-19T10:44:36.162Z,90.00
2023-05-19T10:47:07.277Z,90.30
2023-05-19T10:49:37.796Z,91.10
2023-05-19T10:52:20.029Z,91.00
2023-05-19T10:54:48.132Z,91.20
2023-05-19T10:57:17.446Z,91.20
2023-05-19T10:59:46.012Z,91.50
2023-05-19T11:02:38.596Z,91.30
2023-05-19T11:05:10.902Z,91.00
2023-05-19T11:07:42.410Z,91.40
2023-05-19T11:10:11.286Z,91.50
2023-05-19T11:12:43.870Z,91.60
2023-05-19T11:15:13.531Z,91.60
2023-05-19T11:17:42.944Z,92.10
2023-05-19T11:20:23.498Z,92.00
2023-05-19T11:23:08.892Z,91.30
2023-05-19T11:25:48.235Z,92.00
2023-05-19T11:28:19.460Z,92.00
2023-05-19T11:30:50.629Z,92.00
2023-05-19T11:33:20.470Z,92.10
2023-05-19T11:35:51.923Z,91.50
2023-05-19T11:38:20.278Z,91.60
2023-05-19T11:40:50.018Z,91.70
2023-05-19T11:43:18.144Z,91.70
2023-05-19T11:45:46.978Z,91.90
2023-05-19T11:48:15.980Z,91.40
2023-05-19T11:50:44.944Z,91.10
2023-05-19T11:53:16.382Z,91.20
2023-05-19T11:55:47.699Z,91.00
2023-05-19T11:58:16.956Z,90.80
2023-05-19T12:00:47.943Z,91.30
2023-05-19T12:03:17.435Z,91.10
2023-05-19T12:05:47.713Z,91.90
2023-05-19T12:08:18.528Z,91.60
2023-05-19T12:10:50.452Z,91.50
2023-05-19T12:13:18.680Z,91.20
2023-05-19T12:15:47.000Z,91.40
2023-05-19T12:18:15.280Z,91.80
2023-05-19T12:20:44.294Z,92.00
2023-05-19T12:23:13.148Z,91.70
2023-05-19T12:25:42.830Z,91.10
2023-05-19T12:28:11.583Z,91.10
2023-05-19T12:30:39.737Z,91.50
2023-05-19T12:33:09.713Z,90.80
2023-05-19T12:35:39.089Z,90.60
2023-05-19T12:38:08.202Z,90.30
2023-05-19T12:40:37.703Z,90.60
2023-05-19T12:43:09.654Z,90.60
2023-05-19T12:45:38.850Z,90.60
2023-05-19T12:48:12.367Z,90.80
2023-05-19T12:50:40.869Z,90.60
2023-05-19T12:53:12.255Z,90.70
2023-05-19T12:55:44.316Z,90.90
2023-05-19T12:58:14.579Z,91.10
2023-05-19T13:00:44.893Z,91.10
2023-05-19T13:03:17.603Z,91.30
2023-05-19T13:05:47.349Z,91.50
2023-05-19T13:08:16.892Z,91.10
2023-05-19T13:10:45.986Z,90.70
2023-05-19T13:13:15.767Z,90.80
2023-05-19T13:15:45.419Z,91.40
2023-05-19T13:18:14.811Z,91.40
2023-05-19T13:20:45.074Z,91.20
2023-05-19T13:23:14.074Z,90.90
2023-05-19T13:25:42.703Z,91.40
2023-05-19T13:28:11.216Z,91.20
2023-05-19T13:30:42.166Z,91.30
2023-05-19T13:33:11.499Z,90.90
2023-05-19T13:35:39.677Z,91.40
2023-05-19T13:38:09.862Z,91.10
2023-05-19T13:40:38.619Z,90.70
2023-05-19T13:43:07.441Z,90.60
2023-05-19T13:45:35.604Z,90.90
2023-05-19T13:48:07.369Z,91.60
2023-05-19T13:50:35.774Z,91.00
2023-05-19T13:53:04.056Z,91.30
2023-05-19T13:55:32.216Z,91.20
2023-05-19T13:58:00.370Z,90.70
2023-05-19T14:00:28.576Z,90.90
2023-05-19T14:02:56.862Z,91.10
2023-05-19T14:05:28.348Z,91.00
2023-05-19T14:07:56.680Z,90.60
2023-05-19T14:10:24.943Z,90.60
2023-05-19T14:15:26.884Z,91.20
2023-05-19T14:17:55.080Z,91.20
2023-05-19T14:20:23.410Z,90.90
2023-05-19T14:22:52.939Z,90.70
2023-05-19T14:25:21.091Z,90.20
2023-05-19T14:27:49.229Z,90.00
2023-05-19T14:30:17.408Z,90.40
2023-05-19T14:32:45.564Z,90.40
2023-05-19T14:35:13.688Z,90.80
2023-05-19T14:37:41.793Z,90.80
2023-05-19T14:40:12.652Z,90.60
2023-05-19T14:42:40.827Z,91.00
2023-05-19T14:57:38.288Z,89.00
2023-05-19T15:00:10.340Z,89.80
2023-05-19T15:02:38.554Z,90.00
2023-05-19T15:05:07.252Z,90.30
2023-05-19T15:07:35.599Z,90.50
2023-05-19T15:10:04.276Z,90.50
2023-05-19T15:12:32.416Z,90.40
2023-05-19T15:15:00.691Z,90.40
2023-05-19T15:17:30.242Z,90.00
2023-05-19T15:19:58.490Z,89.20
2023-05-19T15:22:27.497Z,89.80
2023-05-19T15:24:55.608Z,89.40
2023-05-19T15:27:24.281Z,88.50
2023-05-19T15:29:52.401Z,88.10
2023-05-19T15:32:20.563Z,89.50
2023-05-19T15:34:50.151Z,90.00
2023-05-19T15:37:18.304Z,90.40
2023-05-19T15:39:46.402Z,90.50
2023-05-19T15:42:14.583Z,90.00
2023-05-19T15:44:42.684Z,89.90
2023-05-19T15:47:10.802Z,90.00
2023-05-19T15:49:38.937Z,90.30
2023-05-19T15:52:08.632Z,90.20
2023-05-19T15:54:36.780Z,89.20
2023-05-19T15:57:05.012Z,89.10
2023-05-19T15:59:33.112Z,89.20
2023-05-19T16:02:01.360Z,89.10
2023-05-19T16:04:29.532Z,90.00
2023-05-19T16:06:57.978Z,89.90
2023-05-19T16:09:27.443Z,89.40
2023-05-19T16:11:55.592Z,89.40
2023-05-19T16:14:24.542Z,90.10
2023-05-19T16:16:52.778Z,90.20
2023-05-19T16:19:21.494Z,90.50
2023-05-19T16:21:49.645Z,90.50
2023-05-19T16:24:17.745Z,90.60
2023-05-19T16:26:48.646Z,90.30
2023-05-19T16:29:16.775Z,90.30
2023-05-19T16:31:44.940Z,90.00
2023-05-19T16:34:13.068Z,90.30
2023-05-19T16:36:41.324Z,90.30
2023-05-19T16:39:09.401Z,90.00
2023-05-19T16:53:39.972Z,90.30
2023-05-19T16:56:48.483Z,90.20
2023-05-19T16:59:17.238Z,90.10
2023-05-19T17:01:45.425Z,90.50
2023-05-19T17:04:13.552Z,90.70
2023-05-19T17:06:41.771Z,90.40
2023-05-19T17:09:11.245Z,90.40
2023-05-19T17:11:39.369Z,90.50
2023-05-19T17:14:09.264Z,90.20
2023-05-19T17:16:38.174Z,90.50
2023-05-19T17:19:06.365Z,90.80
2023-05-19T17:21:34.468Z,90.40
2023-05-19T17:24:02.622Z,90.20
2023-05-19T17:26:32.118Z,90.10
2023-05-19T17:29:00.325Z,90.40
2023-05-19T17:31:28.452Z,90.70
2023-05-19T17:33:56.584Z,90.90
2023-05-19T17:36:24.737Z,90.60
2023-05-19T17:38:52.910Z,90.80
2023-05-19T17:41:21.919Z,91.20
2023-05-19T17:43:51.418Z,91.40
2023-05-19T17:46:19.548Z,91.20
2023-05-19T17:48:47.719Z,91.20
2023-05-19T17:51:15.991Z,91.20
2023-05-19T17:53:44.606Z,91.30
2023-05-19T17:56:13.679Z,91.50
2023-05-19T17:58:42.265Z,91.50
2023-05-19T18:01:12.336Z,91.40
2023-05-19T18:03:41.461Z,91.70
2023-05-19T18:06:09.956Z,91.90
2023-05-19T18:08:39.655Z,92.00
2023-05-19T18:11:08.491Z,92.20
2023-05-19T18:13:37.599Z,92.10
2023-05-19T18:16:06.028Z,92.40
2023-05-19T18:18:37.358Z,91.90
2023-05-19T18:21:05.972Z,92.00
2023-05-19T18:23:34.137Z,92.00
2023-05-19T18:26:02.295Z,92.20
2023-05-19T18:28:30.666Z,92.30
2023-05-19T18:31:02.148Z,92.50
2023-05-19T18:33:31.238Z,92.80
2023-05-19T18:36:00.944Z,92.90
2023-05-19T18:38:29.072Z,93.10
2023-05-19T18:40:57.922Z,93.20
2023-05-19T18:43:26.176Z,93.60
2023-05-19T18:45:54.418Z,93.30
2023-05-19T18:48:22.763Z,93.50
2023-05-19T18:50:50.938Z,93.60
2023-05-19T18:53:22.095Z,93.90
2023-05-19T18:55:50.213Z,94.00
2023-05-19T18:58:19.107Z,94.20
2023-05-19T19:00:47.348Z,94.40
2023-05-19T19:03:15.971Z,94.40
2023-05-19T19:05:45.286Z,94.60
2023-05-19T19:08:13.535Z,94.60
2023-05-19T19:10:44.347Z,94.60
2023-05-19T19:13:12.451Z,94.60
2023-05-19T19:15:40.782Z,94.80
2023-05-19T19:18:08.978Z,94.90
2023-05-19T19:20:37.122Z,95.20
2023-05-19T19:23:06.788Z,95.40
2023-05-19T19:25:35.188Z,96.00
2023-05-19T19:28:04.759Z,95.80
2023-05-19T19:30:33.162Z,95.90
2023-05-19T19:33:01.511Z,96.00
2023-05-19T19:35:29.709Z,96.10
2023-05-19T19:37:58.487Z,96.10
2023-05-19T19:40:26.659Z,96.40
2023-05-19T19:42:54.771Z,96.40
2023-05-19T19:45:24.305Z,96.50
2023-05-19T19:47:52.841Z,96.90
2023-05-19T19:50:21.308Z,97.00
2023-05-19T19:52:49.457Z,97.20
2023-05-19T19:55:17.684Z,97.40
2023-05-19T19:57:49.351Z,97.50
2023-05-19T20:00:18.596Z,97.50
2023-05-19T20:06:28.588Z,97.50
2023-05-19T20:08:56.655Z,97.70
2023-05-19T20:11:26.634Z,97.70
2023-05-19T20:13:54.891Z,98.00
2023-05-19T20:16:24.208Z,98.10
2023-05-19T20:18:52.444Z,98.30
2023-05-19T20:21:20.725Z,98.30
2023-05-19T20:23:51.102Z,98.20
2023-05-19T20:26:19.305Z,98.40
2023-05-19T20:28:47.474Z,98.70
2023-05-19T20:31:15.590Z,98.80
2023-05-19T20:33:43.714Z,99.10
2023-05-19T20:36:12.040Z,99.30
2023-05-19T20:38:40.517Z,99.70
2023-05-19T20:41:10.029Z,99.70
2023-05-19T20:43:38.213Z,99.90
2023-05-19T20:46:06.665Z,99.90
2023-05-19T20:48:34.848Z,99.90
2023-05-19T20:51:03.005Z,99.90
2023-05-19T20:53:31.140Z,99.90
2023-05-19T20:55:59.253Z,99.90
2023-05-19T20:58:30.322Z,99.90
2023-05-19T21:00:58.599Z,99.90
2023-05-19T21:03:27.407Z,99.90
2023-05-19T21:05:55.823Z,99.90
2023-05-19T21:08:24.383Z,99.90
2023-05-19T21:10:52.692Z,99.90
2023-05-19T21:13:21.195Z,99.90
2023-05-19T21:15:50.687Z,99.90
2023-05-19T21:18:18.796Z,99.90
2023-05-19T21:20:46.929Z,99.90
2023-05-19T21:23:15.017Z,99.90
2023-05-19T21:25:45.183Z,99.90
2023-05-19T21:28:13.599Z,99.90
2023-05-19T21:30:41.801Z,99.90
2023-05-19T21:33:11.616Z,99.90
2023-05-19T21:35:39.762Z,99.90
2023-05-19T21:38:19.609Z,99.90
2023-05-19T21:40:51.359Z,99.90
2023-05-19T21:43:19.582Z,99.90
2023-05-19T21:45:47.798Z,99.90
2023-05-19T21:48:17.318Z,99.90
2023-05-19T21:50:45.674Z,99.90
2023-05-19T21:53:13.760Z,99.90
2023-05-19T21:55:41.861Z,99.90
2023-05-19T21:58:10.027Z,99.90
2023-05-19T22:00:38.281Z,99.90
2023-05-19T22:03:06.715Z,99.90
2023-05-19T22:17:38.942Z,99.90
2023-05-19T22:20:08.279Z,99.90
2023-05-19T22:22:36.826Z,99.90
2023-05-19T22:25:05.503Z,99.90
2023-05-19T22:27:33.668Z,99.90
2023-05-19T22:30:01.752Z,99.90
2023-05-19T22:32:30.445Z,99.90
2023-05-19T22:34:59.928Z,99.90
2023-05-19T22:37:28.947Z,99.90
2023-05-19T22:39:57.077Z,99.90
2023-05-19T22:42:25.257Z,99.90
2023-05-19T22:44:53.443Z,99.90
2023-05-19T22:47:21.700Z,99.90
2023-05-19T22:49:51.130Z,99.90
2023-05-19T22:52:20.647Z,99.90
2023-05-19T22:54:48.814Z,99.90
2023-05-19T22:57:17.572Z,99.90
2023-05-19T22:59:45.830Z,99.90
2023-05-19T23:02:14.772Z,99.90
2023-05-19T23:04:42.872Z,99.90
2023-05-19T23:07:10.974Z,99.90
2023-05-19T23:09:40.529Z,99.90
2023-05-19T23:12:08.620Z,99.90
2023-05-19T23:14:36.734Z,99.90
2023-05-19T23:17:05.007Z,99.90
2023-05-19T23:19:34.986Z,99.90
2023-05-19T23:22:03.081Z,99.90
2023-05-19T23:24:31.304Z,99.90
2023-05-19T23:27:01.004Z,99.90
2023-05-19T23:29:29.157Z,99.90
2023-05-19T23:31:57.313Z,99.90
2023-05-19T23:34:25.534Z,99.90
2023-05-19T23:36:53.638Z,99.90
2023-05-19T23:39:25.086Z,99.90
2023-05-19T23:41:53.160Z,99.90
2023-05-19T23:44:22.649Z,99.90
2023-05-19T23:46:51.359Z,99.90
2023-05-19T23:49:19.768Z,99.90
2023-05-19T23:51:47.877Z,99.90
2023-05-19T23:54:15.948Z,99.90
2023-05-19T23:56:44.102Z,99.90
2023-05-19T23:59:12.312Z,99.90
